Time;durP1;ratioP1;P1;durP2;ratioP2;P2;SDS_P1;SDS_P2;PMS_P1;PMS_P2;Temp;Humidity;BMP_temperature;BMP_pressure;BME280_temperature;BME280_humidity;BME280_pressure;Samples;Min_cycle;Max_cycle;Signal;HPM_P1;HPM_P2
2022/01/09 00:00:26;;;;;;;4.90;4.40;;;;;;;4.42;100.00;98712.13;4979394;28;20769;-69
2022/01/09 00:02:51;;;;;;;5.60;4.00;;;;;;;4.32;100.00;98715.56;4978793;28;20027;-69
2022/01/09 00:05:18;;;;;;;6.88;5.22;;;;;;;4.41;100.00;98707.78;4980850;28;20041;-69
2022/01/09 00:07:43;;;;;;;6.63;4.38;;;;;;;4.35;100.00;98701.22;4978032;28;20030;-69
2022/01/09 00:10:09;;;;;;;5.68;4.18;;;;;;;4.50;100.00;98717.63;4981739;28;20538;-69
2022/01/09 00:12:35;;;;;;;7.60;5.15;;;;;;;4.57;100.00;98720.59;4977824;28;20073;-69
2022/01/09 00:15:00;;;;;;;4.65;3.83;;;;;;;4.32;100.00;98736.00;4979838;28;20026;-68
2022/01/09 00:17:26;;;;;;;6.97;4.15;;;;;;;4.26;100.00;98742.66;4980242;28;20038;-68
2022/01/09 00:19:51;;;;;;;4.22;3.83;;;;;;;4.23;100.00;98742.09;4981115;28;20039;-69
2022/01/09 00:22:20;;;;;;;6.20;5.60;;;;;;;4.23;100.00;98742.94;4978760;28;20069;-68
2022/01/09 00:24:46;;;;;;;4.25;3.47;;;;;;;4.29;100.00;98758.34;4981807;28;20030;-69
2022/01/09 00:27:11;;;;;;;4.20;3.88;;;;;;;4.30;100.00;98759.19;4977817;28;20194;-68
2022/01/09 00:29:36;;;;;;;4.30;3.58;;;;;;;4.24;100.00;98755.22;4981657;28;20125;-68
2022/01/09 00:32:02;;;;;;;5.43;4.93;;;;;;;4.30;100.00;98769.81;4976314;28;20072;-68
2022/01/09 00:34:27;;;;;;;4.63;4.18;;;;;;;4.35;100.00;98779.09;4984828;28;20026;-68
2022/01/09 00:36:53;;;;;;;5.90;4.97;;;;;;;4.39;100.00;98781.47;4978097;28;20133;-68
2022/01/09 00:39:18;;;;;;;4.55;4.10;;;;;;;4.32;100.00;98781.16;4978334;28;20121;-68
2022/01/09 00:41:43;;;;;;;4.88;3.92;;;;;;;4.34;100.00;98790.69;4983058;28;20062;-67
2022/01/09 00:44:08;;;;;;;5.63;4.63;;;;;;;4.29;100.00;98800.84;4978167;28;20902;-68
2022/01/09 00:46:34;;;;;;;5.22;4.43;;;;;;;4.35;100.00;98804.81;4981585;28;20488;-67
2022/01/09 00:49:00;;;;;;;6.05;4.70;;;;;;;4.34;100.00;98803.97;4978965;28;20034;-67
2022/01/09 00:51:26;;;;;;;6.25;4.22;;;;;;;4.41;100.00;98800.78;4982316;28;20567;-68
2022/01/09 00:53:51;;;;;;;7.60;4.97;;;;;;;4.44;100.00;98819.16;4979026;28;20069;-67
2022/01/09 00:56:16;;;;;;;9.35;5.82;;;;;;;4.44;100.00;98822.63;4979044;28;20079;-67
2022/01/09 00:58:42;;;;;;;11.43;5.95;;;;;;;4.62;100.00;98828.19;4977724;28;20022;-67
2022/01/09 01:01:08;;;;;;;12.38;5.55;;;;;;;4.64;100.00;98826.25;4980972;28;20801;-67
2022/01/09 01:03:33;;;;;;;8.43;3.97;;;;;;;4.69;100.00;98847.13;4966361;28;20114;-67
2022/01/09 01:05:59;;;;;;;13.18;4.63;;;;;;;4.77;100.00;98849.13;4980179;28;20030;-69
2022/01/09 01:08:24;;;;;;;15.63;4.78;;;;;;;4.86;100.00;98848.34;4977731;28;20117;-67
2022/01/09 01:10:49;;;;;;;23.08;4.63;;;;;;;4.80;100.00;98852.38;4990250;28;20084;-69
2022/01/09 01:13:14;;;;;;;31.25;3.70;;;;;;;4.79;100.00;98849.81;4978749;28;20034;-68
2022/01/09 01:15:40;;;;;;;27.73;4.60;;;;;;;4.79;100.00;98871.09;4980554;28;20033;-67
2022/01/09 01:18:05;;;;;;;18.30;3.38;;;;;;;4.76;100.00;98879.38;4978111;28;20034;-68
2022/01/09 01:20:32;;;;;;;30.40;4.82;;;;;;;4.83;100.00;98879.69;4979521;28;20428;-67
2022/01/09 01:22:58;;;;;;;44.08;5.03;;;;;;;4.80;100.00;98878.09;4976202;28;20026;-68
2022/01/09 01:25:24;;;;;;;26.83;4.00;;;;;;;4.78;100.00;98885.38;4980968;28;20433;-68
2022/01/09 01:27:49;;;;;;;37.50;4.63;;;;;;;4.75;100.00;98885.66;4978314;28;20034;-68
2022/01/09 01:30:15;;;;;;;15.38;3.38;;;;;;;4.67;100.00;98894.25;4980777;28;20022;-67
2022/01/09 01:32:41;;;;;;;24.77;5.10;;;;;;;4.78;100.00;98909.28;4976354;28;20038;-68
2022/01/09 01:35:07;;;;;;;19.05;4.60;;;;;;;4.77;100.00;98907.59;4979284;28;20643;-69
2022/01/09 01:37:33;;;;;;;33.20;5.13;;;;;;;4.77;100.00;98910.28;4976642;28;20050;-68
2022/01/09 01:39:58;;;;;;;36.72;5.82;;;;;;;4.81;100.00;98917.03;4981134;28;20034;-69
2022/01/09 01:42:23;;;;;;;40.42;6.00;;;;;;;4.95;100.00;98919.38;4978330;28;20088;-67
2022/01/09 01:44:49;;;;;;;26.13;4.85;;;;;;;4.98;100.00;98923.56;4980087;28;20032;-75
2022/01/09 01:47:17;;;;;;;28.45;4.70;;;;;;;4.93;100.00;98944.38;4975265;28;20089;-73
2022/01/09 01:49:43;;;;;;;21.20;2.97;;;;;;;4.85;100.00;98939.72;4979695;28;20061;-71
2022/01/09 01:52:09;;;;;;;27.10;3.78;;;;;;;4.87;100.00;98964.38;4977626;28;20154;-75
2022/01/09 01:54:34;;;;;;;25.30;3.45;;;;;;;4.87;100.00;98968.84;4973226;28;20026;-73
2022/01/09 01:57:00;;;;;;;27.88;4.45;;;;;;;4.90;100.00;98979.25;4980660;28;20031;-75
2022/01/09 01:59:26;;;;;;;18.20;3.72;;;;;;;4.98;100.00;98971.44;4979136;28;20030;-73
2022/01/09 02:01:51;;;;;;;30.60;5.03;;;;;;;4.92;100.00;98975.47;4981791;28;20052;-73
2022/01/09 02:04:16;;;;;;;37.20;5.55;;;;;;;4.88;100.00;98981.19;4978224;28;20034;-73
2022/01/09 02:06:42;;;;;;;26.60;5.22;;;;;;;4.91;100.00;98981.75;4978782;28;20041;-69
2022/01/09 02:09:07;;;;;;;23.45;4.28;;;;;;;4.89;100.00;98990.84;4977405;28;20101;-73
2022/01/09 02:11:33;;;;;;;30.38;4.00;;;;;;;4.94;100.00;99005.44;4978071;28;20117;-74
2022/01/09 02:13:59;;;;;;;39.05;5.15;;;;;;;4.99;100.00;98994.41;4992286;28;21854;-74
2022/01/09 02:16:24;;;;;;;42.58;5.82;;;;;;;4.93;100.00;98997.56;4975202;28;20309;-75
2022/01/09 02:18:50;;;;;;;29.70;4.40;;;;;;;4.98;100.00;99018.50;4972798;28;20031;-75
2022/01/09 02:21:16;;;;;;;29.00;3.65;;;;;;;4.99;100.00;99018.34;4977191;28;20022;-75
2022/01/09 02:23:45;;;;;;;36.72;4.30;;;;;;;4.95;100.00;99030.22;4977723;28;20366;-75
2022/01/09 02:26:11;;;;;;;38.95;5.47;;;;;;;5.00;100.00;99036.00;4975573;28;20041;-74
2022/01/09 02:28:36;;;;;;;18.83;3.38;;;;;;;4.93;100.00;99048.97;4971710;28;20026;-74
2022/01/09 02:31:02;;;;;;;25.65;2.90;;;;;;;4.98;100.00;99059.22;4972753;28;20045;-72
2022/01/09 02:33:28;;;;;;;20.73;4.18;;;;;;;4.93;100.00;99069.38;4977742;28;20034;-73
2022/01/09 02:35:54;;;;;;;30.65;3.95;;;;;;;4.92;100.00;99062.38;4979795;28;20069;-75
2022/01/09 02:38:20;;;;;;;18.25;3.50;;;;;;;4.88;100.00;99079.59;4978997;28;20126;-74
2022/01/09 02:40:52;;;;;;;32.70;4.65;;;;;;;4.88;100.00;99082.25;4974423;28;20030;-75
2022/01/09 02:43:17;;;;;;;26.13;5.70;;;;;;;4.85;100.00;99085.16;4975521;28;20436;-75
2022/01/09 02:45:46;;;;;;;26.38;3.63;;;;;;;4.92;100.00;99089.84;4979203;28;20030;-73
2022/01/09 02:48:11;;;;;;;21.23;4.05;;;;;;;4.99;100.00;99098.13;4976798;28;20092;-73
2022/01/09 02:50:41;;;;;;;24.10;4.75;;;;;;;5.04;100.00;99100.41;4975120;28;20034;-76
2022/01/09 02:53:15;;;;;;;43.15;5.95;;;;;;;5.01;100.00;99111.34;4974256;28;20121;-75
2022/01/09 02:55:41;;;;;;;66.72;7.53;;;;;;;4.95;100.00;99112.66;4978660;28;20037;-75
2022/01/09 02:58:06;;;;;;;23.80;4.45;;;;;;;4.96;100.00;99122.31;4976234;28;20034;-76
2022/01/09 03:00:35;;;;;;;26.80;4.30;;;;;;;4.99;100.00;99123.91;4979859;28;20034;-76
2022/01/09 03:03:01;;;;;;;33.35;4.70;;;;;;;4.90;100.00;99133.50;4976506;28;20130;-77
2022/01/09 03:05:27;;;;;;;32.20;4.32;;;;;;;4.87;100.00;99139.06;4974772;28;20064;-75
2022/01/09 03:07:53;;;;;;;48.88;5.97;;;;;;;4.78;100.00;99127.31;4978778;28;20064;-77
2022/01/09 03:10:19;;;;;;;29.17;4.82;;;;;;;4.82;100.00;99152.72;4972338;28;20030;-75
2022/01/09 03:12:46;;;;;;;26.02;4.07;;;;;;;4.83;100.00;99148.25;4973988;28;20038;-74
2022/01/09 03:15:12;;;;;;;30.85;4.75;;;;;;;4.86;100.00;99145.34;4975609;28;20034;-75
2022/01/09 03:17:38;;;;;;;20.98;2.45;;;;;;;4.93;100.00;99163.34;4956987;28;20054;-77
2022/01/09 03:20:06;;;;;;;22.48;4.00;;;;;;;4.88;100.00;99172.66;4978911;28;20026;-75
2022/01/09 03:22:32;;;;;;;26.65;4.90;;;;;;;4.82;100.00;99166.00;4978184;28;20434;-77
2022/01/09 03:24:57;;;;;;;26.25;4.18;;;;;;;4.86;100.00;99171.94;4976278;28;20026;-76
2022/01/09 03:27:22;;;;;;;19.42;4.07;;;;;;;4.83;100.00;99181.00;4959976;28;20543;-75
2022/01/09 03:29:48;;;;;;;15.82;3.83;;;;;;;4.88;100.00;99188.63;4981454;28;20042;-75
2022/01/09 03:32:13;;;;;;;36.58;5.15;;;;;;;4.88;100.00;99189.44;4976374;28;20031;-78
2022/01/09 03:34:38;;;;;;;23.90;3.55;;;;;;;4.85;100.00;99196.84;4976228;28;20027;-75
2022/01/09 03:37:04;;;;;;;17.15;2.72;;;;;;;4.76;100.00;99207.25;4972313;28;20481;-75
2022/01/09 03:39:30;;;;;;;23.17;3.08;;;;;;;4.70;100.00;99202.41;4955702;28;20039;-75
2022/01/09 03:41:58;;;;;;;17.00;2.55;;;;;;;4.75;100.00;99218.84;4974666;28;20085;-76
2022/01/09 03:44:23;;;;;;;18.42;3.65;;;;;;;4.76;100.00;99233.81;4976716;28;20487;-74
2022/01/09 03:46:49;;;;;;;16.27;2.45;;;;;;;4.72;100.00;99242.19;4976065;28;20038;-74
2022/01/09 03:49:14;;;;;;;31.23;3.45;;;;;;;4.72;100.00;99237.69;4975318;28;20022;-74
2022/01/09 03:51:41;;;;;;;31.90;4.55;;;;;;;4.71;100.00;99245.81;4960207;28;20077;-74
2022/01/09 03:54:06;;;;;;;25.25;3.92;;;;;;;4.66;100.00;99259.44;4973736;28;20153;-73
2022/01/09 03:56:32;;;;;;;12.18;2.70;;;;;;;4.74;100.00;99262.34;4960150;28;20030;-73
2022/01/09 03:58:58;;;;;;;25.58;3.17;;;;;;;4.69;100.00;99255.72;4961608;28;20420;-74
2022/01/09 04:01:23;;;;;;;16.30;3.08;;;;;;;4.57;100.00;99262.84;4981431;28;20034;-73
2022/01/09 04:03:50;;;;;;;23.90;3.33;;;;;;;4.64;100.00;99272.88;4981801;28;20081;-73
2022/01/09 04:06:15;;;;;;;23.73;3.47;;;;;;;4.60;100.00;99282.03;4982583;28;20042;-74
2022/01/09 04:08:40;;;;;;;8.05;1.95;;;;;;;4.71;100.00;99283.03;4983607;28;20495;-73
2022/01/09 04:11:07;;;;;;;21.85;2.58;;;;;;;4.60;100.00;99290.00;4958017;28;20042;-74
2022/01/09 04:13:32;;;;;;;18.83;2.63;;;;;;;4.59;100.00;99303.44;4967212;28;20022;-74
2022/01/09 04:15:58;;;;;;;28.48;3.97;;;;;;;4.55;100.00;99294.84;4996411;28;20042;-73
2022/01/09 04:18:24;;;;;;;20.58;2.65;;;;;;;4.58;100.00;99320.34;4980533;28;20042;-75
2022/01/09 04:20:51;;;;;;;17.80;2.63;;;;;;;4.54;100.00;99324.19;4964717;28;20036;-73
2022/01/09 04:23:17;;;;;;;10.07;2.00;;;;;;;4.49;100.00;99337.84;4976879;28;20030;-72
2022/01/09 04:25:44;;;;;;;15.35;2.53;;;;;;;4.47;100.00;99329.97;4978214;28;20068;-75
2022/01/09 04:28:10;;;;;;;17.33;3.75;;;;;;;4.48;100.00;99333.50;4977460;28;20030;-73
2022/01/09 04:30:35;;;;;;;21.75;4.80;;;;;;;4.52;100.00;99334.09;4979971;28;20030;-73
2022/01/09 04:33:01;;;;;;;15.73;2.55;;;;;;;4.67;100.00;99350.69;4980284;28;20077;-73
2022/01/09 04:35:26;;;;;;;21.15;3.47;;;;;;;4.54;100.00;99353.44;4983868;28;20072;-73
2022/01/09 04:37:53;;;;;;;23.75;3.28;;;;;;;4.49;100.00;99357.28;4977924;28;20035;-73
2022/01/09 04:40:20;;;;;;;15.52;2.78;;;;;;;4.37;100.00;99350.25;4977920;28;20034;-74
2022/01/09 04:42:50;;;;;;;19.38;2.97;;;;;;;4.28;100.00;99345.66;4975204;28;20520;-74
2022/01/09 04:45:16;;;;;;;21.95;2.72;;;;;;;4.42;100.00;99373.84;4980457;28;20054;-75
2022/01/09 04:47:45;;;;;;;13.98;3.85;;;;;;;4.38;100.00;99378.50;4977204;28;20525;-72
2022/01/09 04:50:14;;;;;;;12.05;2.58;;;;;;;4.16;100.00;99380.13;4975058;28;20069;-73
2022/01/09 04:52:41;;;;;;;15.77;2.28;;;;;;;4.31;100.00;99394.06;4976861;28;20032;-73
2022/01/09 04:55:06;;;;;;;10.70;2.28;;;;;;;4.17;100.00;99381.00;4980117;28;20037;-73
2022/01/09 04:57:32;;;;;;;20.75;2.42;;;;;;;4.22;100.00;99405.41;4961819;28;20030;-73
2022/01/09 04:59:57;;;;;;;16.90;3.05;;;;;;;4.13;100.00;99403.44;4979997;28;20487;-73
2022/01/09 05:02:22;;;;;;;21.55;2.50;;;;;;;4.08;100.00;99411.75;4980727;28;20221;-73
2022/01/09 05:04:48;;;;;;;9.77;2.55;;;;;;;4.11;100.00;99422.13;4978849;28;20476;-73
2022/01/09 05:07:13;;;;;;;15.90;2.58;;;;;;;4.15;100.00;99428.06;4980345;28;20037;-72
2022/01/09 05:09:38;;;;;;;14.90;1.73;;;;;;;4.05;100.00;99423.44;4979863;28;20029;-72
2022/01/09 05:12:04;;;;;;;11.30;2.25;;;;;;;4.04;100.00;99436.84;4976809;28;20062;-72
2022/01/09 05:14:29;;;;;;;20.80;3.05;;;;;;;4.08;100.00;99442.75;4978898;28;20044;-73
2022/01/09 05:16:54;;;;;;;13.57;2.88;;;;;;;4.01;100.00;99439.72;4975801;28;20030;-73
2022/01/09 05:19:22;;;;;;;10.18;2.92;;;;;;;3.99;100.00;99441.63;4979154;28;20105;-72
2022/01/09 05:21:48;;;;;;;11.68;1.85;;;;;;;4.00;100.00;99465.41;4975297;28;20015;-73
2022/01/09 05:24:15;;;;;;;8.18;2.20;;;;;;;4.02;100.00;99468.78;4979946;28;20542;-73
2022/01/09 05:26:40;;;;;;;15.50;3.08;;;;;;;4.08;100.00;99471.97;4969736;28;20027;-72
2022/01/09 05:29:06;;;;;;;11.85;2.08;;;;;;;4.05;100.00;99487.16;4975747;28;20064;-72
2022/01/09 05:31:31;;;;;;;6.90;1.67;;;;;;;3.93;100.00;99497.84;4958046;28;20026;-72
2022/01/09 05:33:57;;;;;;;11.52;2.45;;;;;;;3.96;100.00;99494.97;4978612;28;20026;-73
2022/01/09 05:36:22;;;;;;;8.57;2.20;;;;;;;4.02;100.00;99508.63;4976175;28;20053;-72
2022/01/09 05:38:47;;;;;;;14.57;2.58;;;;;;;3.90;100.00;99513.03;4976855;28;20117;-72
2022/01/09 05:41:13;;;;;;;13.23;3.38;;;;;;;4.01;100.00;99522.03;4979511;28;20154;-71
2022/01/09 05:43:39;;;;;;;21.77;2.75;;;;;;;3.90;100.00;99518.34;4977408;28;20484;-72
2022/01/09 05:46:05;;;;;;;10.32;2.17;;;;;;;3.87;100.00;99529.16;4977588;28;20416;-72
2022/01/09 05:48:30;;;;;;;15.13;2.20;;;;;;;3.92;100.00;99526.22;4976330;28;20030;-72
2022/01/09 05:50:55;;;;;;;8.50;1.58;;;;;;;3.82;100.00;99533.97;4976210;28;20065;-72
2022/01/09 05:53:21;;;;;;;7.55;2.10;;;;;;;3.79;100.00;99544.81;4976242;28;20034;-72
2022/01/09 05:55:47;;;;;;;14.32;2.55;;;;;;;3.81;100.00;99537.59;4978655;28;20077;-72
2022/01/09 05:58:12;;;;;;;14.13;1.98;;;;;;;3.77;100.00;99536.09;4961570;28;20062;-72
2022/01/09 06:00:38;;;;;;;8.45;1.58;;;;;;;3.63;100.00;99531.75;4974367;28;20143;-73
2022/01/09 06:03:03;;;;;;;6.13;1.75;;;;;;;3.77;100.00;99554.69;4979815;28;20026;-73
2022/01/09 06:05:28;;;;;;;11.63;2.08;;;;;;;3.73;100.00;99561.16;4976518;28;20117;-72
2022/01/09 06:07:54;;;;;;;8.48;2.35;;;;;;;3.68;100.00;99561.50;4979635;28;20030;-72
2022/01/09 06:10:19;;;;;;;10.65;2.08;;;;;;;3.62;100.00;99569.88;4978093;28;20447;-73
2022/01/09 06:12:44;;;;;;;10.32;2.60;;;;;;;3.62;100.00;99571.66;4977691;28;20069;-72
2022/01/09 06:15:10;;;;;;;14.93;3.40;;;;;;;3.63;100.00;99576.03;4976594;28;20034;-72
2022/01/09 06:17:42;;;;;;;9.85;2.13;;;;;;;3.60;100.00;99583.25;4975703;28;20077;-72
2022/01/09 06:20:08;;;;;;;10.80;2.30;;;;;;;3.57;100.00;99582.63;4976780;28;20302;-72
2022/01/09 06:22:33;;;;;;;17.92;3.30;;;;;;;3.55;100.00;99582.72;4973660;28;20504;-72
2022/01/09 06:24:58;;;;;;;14.07;2.38;;;;;;;3.47;100.00;99573.56;4973444;28;20086;-72
2022/01/09 06:27:24;;;;;;;7.75;2.08;;;;;;;3.38;100.00;99575.91;4970471;28;20058;-72
2022/01/09 06:29:49;;;;;;;10.85;3.55;;;;;;;3.47;100.00;99587.72;4975916;28;20044;-71
2022/01/09 06:32:15;;;;;;;10.68;3.30;;;;;;;3.57;100.00;99598.53;4961469;28;20489;-71
2022/01/09 06:34:41;;;;;;;9.23;2.92;;;;;;;3.46;100.00;99596.63;4992922;28;20045;-72
2022/01/09 06:37:06;;;;;;;12.77;2.33;;;;;;;3.44;100.00;99599.34;4979410;28;20022;-72
2022/01/09 06:39:32;;;;;;;15.27;2.63;;;;;;;3.55;100.00;99611.06;4977820;28;20081;-71
2022/01/09 06:41:57;;;;;;;10.35;2.22;;;;;;;3.50;100.00;99610.53;4977169;28;20113;-72
2022/01/09 06:44:22;;;;;;;12.70;2.08;;;;;;;3.50;100.00;99603.41;4994020;28;20042;-71
2022/01/09 06:46:47;;;;;;;14.52;2.75;;;;;;;3.65;100.00;99616.59;4983186;28;20494;-72
2022/01/09 06:49:13;;;;;;;16.70;2.95;;;;;;;3.72;100.00;99618.72;4976744;28;20575;-71
2022/01/09 06:51:38;;;;;;;11.15;2.28;;;;;;;3.62;100.00;99624.75;4979205;28;20035;-71
2022/01/09 06:54:03;;;;;;;9.38;2.55;;;;;;;3.64;100.00;99628.16;4975923;28;20041;-71
2022/01/09 06:56:29;;;;;;;13.55;2.50;;;;;;;3.44;100.00;99607.31;4979643;28;20030;-71
2022/01/09 06:58:54;;;;;;;15.35;2.30;;;;;;;3.53;100.00;99639.50;4962478;28;20034;-71
2022/01/09 07:01:20;;;;;;;9.95;2.30;;;;;;;3.44;100.00;99647.13;4974361;28;20528;-72
2022/01/09 07:03:45;;;;;;;13.13;2.53;;;;;;;3.54;100.00;99657.13;4972800;28;20038;-73
2022/01/09 07:06:11;;;;;;;17.92;3.00;;;;;;;3.65;100.00;99657.28;4978793;28;20073;-73
2022/01/09 07:08:36;;;;;;;10.20;2.25;;;;;;;3.70;100.00;99673.75;4977404;28;20121;-71
2022/01/09 07:11:02;;;;;;;11.20;2.53;;;;;;;3.63;100.00;99675.09;4970003;28;20035;-72
2022/01/09 07:13:27;;;;;;;9.98;2.50;;;;;;;3.59;100.00;99674.44;4976141;28;20701;-72
2022/01/09 07:15:53;;;;;;;13.98;2.60;;;;;;;3.63;100.00;99660.97;4978058;28;20041;-72
2022/01/09 07:18:18;;;;;;;11.80;2.47;;;;;;;3.75;100.00;99681.38;4975409;28;20477;-72
2022/01/09 07:20:43;;;;;;;10.38;2.40;;;;;;;3.64;100.00;99683.91;4971479;28;20454;-72
2022/01/09 07:23:09;;;;;;;14.45;3.58;;;;;;;3.74;100.00;99691.13;4977632;28;20117;-71
2022/01/09 07:25:35;;;;;;;5.63;2.03;;;;;;;3.75;100.00;99695.50;4978051;28;20050;-72
2022/01/09 07:28:02;;;;;;;9.35;3.20;;;;;;;3.73;100.00;99694.75;4979724;28;20116;-72
2022/01/09 07:30:28;;;;;;;8.98;2.67;;;;;;;3.73;100.00;99696.56;4975102;28;20030;-71
2022/01/09 07:32:53;;;;;;;10.07;2.72;;;;;;;3.74;100.00;99708.88;4977450;28;20034;-71
2022/01/09 07:35:19;;;;;;;17.42;3.65;;;;;;;3.75;100.00;99707.94;4982437;28;20507;-71
2022/01/09 07:37:44;;;;;;;10.13;3.05;;;;;;;3.67;100.00;99707.59;4976293;28;20057;-71
2022/01/09 07:40:10;;;;;;;5.13;1.55;;;;;;;3.81;100.00;99717.28;4977945;28;20105;-71
2022/01/09 07:42:35;;;;;;;11.68;2.33;;;;;;;3.66;100.00;99717.38;4980096;28;20125;-71
2022/01/09 07:45:01;;;;;;;7.40;2.05;;;;;;;3.80;100.00;99732.38;4979498;28;20480;-71
2022/01/09 07:47:26;;;;;;;4.15;2.25;;;;;;;3.81;100.00;99731.44;4975040;28;20176;-71
2022/01/09 07:49:51;;;;;;;7.50;2.10;;;;;;;3.74;100.00;99744.25;4974772;28;20144;-71
2022/01/09 07:52:17;;;;;;;4.35;1.95;;;;;;;3.69;100.00;99741.06;4976154;28;20069;-71
2022/01/09 07:54:42;;;;;;;7.47;2.33;;;;;;;3.53;100.00;99738.56;4982619;28;20030;-71
2022/01/09 07:57:08;;;;;;;11.23;3.55;;;;;;;3.53;100.00;99745.66;4978586;28;20049;-71
2022/01/09 07:59:33;;;;;;;11.98;2.00;;;;;;;3.52;100.00;99746.63;4966512;28;20041;-70
2022/01/09 08:01:58;;;;;;;6.43;2.20;;;;;;;3.52;100.00;99770.50;4978860;28;20034;-70
2022/01/09 08:04:23;;;;;;;11.00;2.58;;;;;;;3.38;100.00;99766.97;4984958;28;20042;-71
2022/01/09 08:06:49;;;;;;;7.78;2.22;;;;;;;3.35;100.00;99763.63;4980009;28;20080;-71
2022/01/09 08:09:14;;;;;;;8.95;2.67;;;;;;;3.45;100.00;99775.38;4979182;28;21935;-71
2022/01/09 08:11:39;;;;;;;12.30;2.47;;;;;;;3.33;100.00;99779.69;4979149;28;20034;-70
2022/01/09 08:14:05;;;;;;;14.45;3.13;;;;;;;3.28;100.00;99787.94;4983854;28;20034;-71
2022/01/09 08:16:30;;;;;;;6.05;1.70;;;;;;;3.17;100.00;99769.19;4978886;28;20575;-71
2022/01/09 08:18:56;;;;;;;5.38;1.95;;;;;;;3.18;100.00;99783.31;4980818;28;20092;-71
2022/01/09 08:21:21;;;;;;;8.30;2.30;;;;;;;3.27;100.00;99799.50;4978215;28;20030;-70
2022/01/09 08:23:47;;;;;;;6.53;1.70;;;;;;;3.17;100.00;99795.72;4978629;28;20447;-71
2022/01/09 08:26:14;;;;;;;7.10;1.58;;;;;;;3.08;100.00;99807.78;4978324;28;20026;-71
2022/01/09 08:28:44;;;;;;;7.72;2.05;;;;;;;3.19;100.00;99814.19;4972315;28;20031;-71
2022/01/09 08:31:09;;;;;;;8.50;2.40;;;;;;;3.22;100.00;99800.72;4973850;28;20026;-71
2022/01/09 08:33:34;;;;;;;10.18;2.58;;;;;;;3.25;100.00;99803.19;4974191;28;20386;-71
2022/01/09 08:35:59;;;;;;;10.98;2.80;;;;;;;3.12;100.00;99805.75;4977819;28;20187;-71
2022/01/09 08:38:25;;;;;;;9.52;2.80;;;;;;;3.24;100.00;99805.00;4971919;28;20035;-71
2022/01/09 08:40:50;;;;;;;8.90;2.47;;;;;;;3.40;100.00;99812.84;4973898;28;20037;-72
2022/01/09 08:43:15;;;;;;;8.57;2.47;;;;;;;3.41;100.00;99821.63;4977545;28;20058;-71
2022/01/09 08:45:41;;;;;;;10.18;3.20;;;;;;;3.57;100.00;99822.38;4980905;28;20485;-71
2022/01/09 08:48:06;;;;;;;7.88;1.90;;;;;;;3.42;100.00;99818.91;4982381;28;20117;-70
2022/01/09 08:50:31;;;;;;;7.95;2.33;;;;;;;3.51;100.00;99822.75;4995574;28;20527;-70
2022/01/09 08:52:57;;;;;;;9.73;3.80;;;;;;;3.71;100.00;99823.25;4979464;28;20026;-71
2022/01/09 08:55:22;;;;;;;8.73;2.50;;;;;;;3.82;100.00;99831.38;4978654;28;20315;-70
2022/01/09 08:57:47;;;;;;;8.25;2.05;;;;;;;3.97;100.00;99834.81;4982763;28;20058;-70
2022/01/09 09:00:13;;;;;;;12.40;2.47;;;;;;;4.20;100.00;99841.25;4981026;28;20109;-71
2022/01/09 09:02:41;;;;;;;11.02;2.13;;;;;;;4.34;100.00;99844.78;4981531;28;20048;-71
2022/01/09 09:05:06;;;;;;;9.68;2.30;;;;;;;4.35;100.00;99847.31;4979458;28;20026;-72
2022/01/09 09:07:32;;;;;;;10.73;2.92;;;;;;;4.53;100.00;99862.97;4982043;28;20034;-71
2022/01/09 09:10:03;;;;;;;8.13;2.00;;;;;;;4.50;100.00;99861.38;4980998;28;20053;-71
2022/01/09 09:12:29;;;;;;;7.28;2.10;;;;;;;4.53;100.00;99870.09;4978289;28;20042;-71
2022/01/09 09:14:54;;;;;;;8.13;2.70;;;;;;;4.64;100.00;99871.06;4984371;28;20030;-71
2022/01/09 09:17:20;;;;;;;13.48;2.45;;;;;;;4.53;100.00;99870.94;4980604;28;20085;-71
2022/01/09 09:19:45;;;;;;;9.07;2.35;;;;;;;4.32;100.00;99876.75;4978909;28;20034;-71
2022/01/09 09:22:10;;;;;;;10.90;2.03;;;;;;;4.38;100.00;99874.66;4979821;28;20034;-71
2022/01/09 09:24:37;;;;;;;12.15;2.47;;;;;;;4.31;100.00;99885.69;4981782;28;20405;-70
2022/01/09 09:27:03;;;;;;;11.82;2.38;;;;;;;4.28;100.00;99890.38;4983522;28;20034;-70
2022/01/09 09:29:28;;;;;;;7.95;2.42;;;;;;;4.28;100.00;99895.69;4981671;28;20355;-71
2022/01/09 09:31:53;;;;;;;12.10;3.35;;;;;;;4.29;100.00;99903.53;4981158;28;20519;-71
2022/01/09 09:34:19;;;;;;;12.82;2.13;;;;;;;4.24;100.00;99883.53;4982089;28;20058;-71
2022/01/09 09:36:44;;;;;;;15.13;1.98;;;;;;;4.28;100.00;99908.97;4984390;28;20410;-71
2022/01/09 09:39:09;;;;;;;9.00;2.70;;;;;;;4.23;100.00;99908.41;4977740;28;20053;-70
2022/01/09 09:41:35;;;;;;;9.18;2.67;;;;;;;4.43;100.00;99909.75;4975616;28;20049;-75
2022/01/09 09:44:02;;;;;;;11.38;2.50;;;;;;;4.49;100.00;99912.84;4969911;28;20468;-70
2022/01/09 09:46:27;;;;;;;11.82;2.78;;;;;;;4.53;100.00;99912.63;4977392;28;20022;-70
2022/01/09 09:48:54;;;;;;;7.90;2.35;;;;;;;4.74;100.00;99920.97;4981314;28;20505;-71
2022/01/09 09:51:20;;;;;;;8.65;2.05;;;;;;;4.94;100.00;99917.78;4978047;28;20030;-70
2022/01/09 09:53:45;;;;;;;10.63;2.25;;;;;;;4.94;100.00;99919.59;4974592;28;20037;-71
2022/01/09 09:56:11;;;;;;;9.93;2.72;;;;;;;4.95;100.00;99915.97;4979744;28;20369;-71
2022/01/09 09:58:47;;;;;;;13.35;2.88;;;;;;;4.79;99.96;99921.50;4980298;28;20133;-71
2022/01/09 10:01:27;;;;;;;13.75;2.42;;;;;;;4.89;99.76;99927.91;4976419;28;20037;-72
2022/01/09 10:03:54;;;;;;;7.25;2.40;;;;;;;4.89;99.38;99924.41;4980115;28;20105;-71
2022/01/09 10:06:38;;;;;;;10.15;2.92;;;;;;;4.81;100.00;99940.84;4980822;28;20026;-71
2022/01/09 10:09:18;;;;;;;11.60;2.60;;;;;;;4.88;100.00;99934.16;4978911;28;20102;-71
2022/01/09 10:11:53;;;;;;;10.90;2.47;;;;;;;5.04;99.49;99939.28;4977727;28;20038;-72
2022/01/09 10:14:27;;;;;;;11.88;2.78;;;;;;;5.12;100.00;99937.91;4984357;28;20161;-71
2022/01/09 10:17:13;;;;;;;19.88;3.70;;;;;;;5.26;100.00;99940.44;4974019;28;20751;-71
2022/01/09 10:19:57;;;;;;;14.27;3.03;;;;;;;5.55;99.00;99951.72;4974538;28;20631;-71
2022/01/09 10:22:30;;;;;;;11.10;2.60;;;;;;;5.78;98.77;99951.03;4978587;28;20089;-71
2022/01/09 10:24:56;;;;;;;5.88;3.55;;;;;;;5.61;97.61;99962.88;4979920;28;20085;-72
2022/01/09 10:27:29;;;;;;;8.73;2.08;;;;;;;5.50;98.59;99945.00;4981112;28;20499;-71
2022/01/09 10:29:55;;;;;;;9.32;2.78;;;;;;;5.63;97.68;99955.63;4979151;28;20034;-71
2022/01/09 10:32:27;;;;;;;6.13;2.53;;;;;;;5.45;98.08;99948.00;4977654;28;20316;-71
2022/01/09 10:35:10;;;;;;;6.57;2.17;;;;;;;5.37;97.30;99945.00;4977806;28;20030;-71
2022/01/09 10:37:36;;;;;;;9.13;2.50;;;;;;;5.43;97.71;99955.25;4978978;28;21854;-71
2022/01/09 10:40:08;;;;;;;9.05;2.08;;;;;;;5.33;97.91;99955.03;4978098;28;20117;-72
2022/01/09 10:42:34;;;;;;;7.05;2.35;;;;;;;5.44;98.11;99958.75;4977407;28;20037;-72
2022/01/09 10:45:16;;;;;;;12.52;2.55;;;;;;;5.38;98.05;99968.00;4977961;28;20038;-71
2022/01/09 10:47:42;;;;;;;19.15;4.63;;;;;;;5.55;97.61;99961.50;4974676;28;20042;-72
2022/01/09 10:50:10;;;;;;;12.70;2.50;;;;;;;6.71;95.40;99970.94;4959974;28;20041;-70
2022/01/09 10:52:39;;;;;;;7.15;2.28;;;;;;;6.53;93.03;99975.81;4974857;28;20031;-73
2022/01/09 10:55:07;;;;;;;13.98;2.83;;;;;;;5.97;94.95;99970.03;4977766;28;20038;-72
2022/01/09 10:57:37;;;;;;;15.40;3.15;;;;;;;5.52;97.46;99961.72;4995549;28;20038;-74
2022/01/09 11:00:12;;;;;;;10.10;2.65;;;;;;;5.44;99.38;99978.25;4979088;28;20834;-72
2022/01/09 11:02:38;;;;;;;9.43;2.38;;;;;;;5.16;100.00;99984.66;4978496;28;20026;-71
2022/01/09 11:05:04;;;;;;;12.95;2.20;;;;;;;5.15;100.00;99990.94;4983900;28;20376;-72
2022/01/09 11:07:30;;;;;;;13.00;2.38;;;;;;;5.17;100.00;99992.50;4976725;28;20081;-71
2022/01/09 11:09:57;;;;;;;8.65;2.88;;;;;;;5.00;100.00;99992.81;4994869;28;20113;-72
2022/01/09 11:12:25;;;;;;;15.68;2.97;;;;;;;4.98;100.00;99992.06;4977332;28;20043;-72
2022/01/09 11:14:52;;;;;;;10.70;2.33;;;;;;;4.99;100.00;99985.81;4984906;28;20064;-72
2022/01/09 11:17:20;;;;;;;15.85;3.25;;;;;;;5.95;100.00;100000.44;4976436;28;20030;-72
2022/01/09 11:19:45;;;;;;;11.20;2.13;;;;;;;6.47;98.28;99993.16;4976519;28;20046;-73
2022/01/09 11:22:14;;;;;;;8.02;2.05;;;;;;;6.40;97.29;100002.56;4963158;28;20730;-72
2022/01/09 11:25:10;;;;;;;16.63;4.15;;;;;;;6.90;95.63;100015.72;4979039;28;20038;-72